sensor_id;sensor_type;location;lat;lon;timestamp;P1;durP1;ratioP1;P2;durP2;ratioP2
13279;SDS011;6708;49.814;8.652;2022-11-18T00:01:35;0.80;;;0.80;;
13279;SDS011;6708;49.814;8.652;2022-11-18T00:04:07;0.60;;;0.60;;
13279;SDS011;6708;49.814;8.652;2022-11-18T00:06:38;0.70;;;0.70;;
13279;SDS011;6708;49.814;8.652;2022-11-18T00:09:07;1.40;;;0.97;;
13279;SDS011;6708;49.814;8.652;2022-11-18T00:11:35;0.70;;;0.70;;
13279;SDS011;6708;49.814;8.652;2022-11-18T00:14:21;0.63;;;0.63;;
13279;SDS011;6708;49.814;8.652;2022-11-18T00:16:54;0.70;;;0.70;;
13279;SDS011;6708;49.814;8.652;2022-11-18T00:19:28;1.60;;;0.90;;
13279;SDS011;6708;49.814;8.652;2022-11-18T00:21:58;1.10;;;1.00;;
13279;SDS011;6708;49.814;8.652;2022-11-18T00:24:29;0.90;;;0.90;;
13279;SDS011;6708;49.814;8.652;2022-11-18T00:26:58;0.87;;;0.87;;
13279;SDS011;6708;49.814;8.652;2022-11-18T00:29:27;1.00;;;1.00;;
13279;SDS011;6708;49.814;8.652;2022-11-18T00:31:56;1.40;;;1.40;;
13279;SDS011;6708;49.814;8.652;2022-11-18T00:34:27;1.10;;;1.10;;
13279;SDS011;6708;49.814;8.652;2022-11-18T00:36:56;1.50;;;1.50;;
13279;SDS011;6708;49.814;8.652;2022-11-18T00:39:25;1.67;;;1.57;;
13279;SDS011;6708;49.814;8.652;2022-11-18T00:41:57;1.37;;;1.37;;
13279;SDS011;6708;49.814;8.652;2022-11-18T00:44:37;2.10;;;2.00;;
13279;SDS011;6708;49.814;8.652;2022-11-18T00:47:07;3.53;;;1.50;;
13279;SDS011;6708;49.814;8.652;2022-11-18T00:49:39;1.83;;;1.60;;
13279;SDS011;6708;49.814;8.652;2022-11-18T00:52:07;1.43;;;1.43;;
13279;SDS011;6708;49.814;8.652;2022-11-18T00:54:36;1.50;;;1.50;;
13279;SDS011;6708;49.814;8.652;2022-11-18T00:57:06;1.67;;;1.50;;
13279;SDS011;6708;49.814;8.652;2022-11-18T00:59:37;1.63;;;1.53;;
13279;SDS011;6708;49.814;8.652;2022-11-18T01:02:06;1.30;;;1.20;;
13279;SDS011;6708;49.814;8.652;2022-11-18T01:04:34;1.70;;;1.57;;
13279;SDS011;6708;49.814;8.652;2022-11-18T01:07:07;1.40;;;1.40;;
13279;SDS011;6708;49.814;8.652;2022-11-18T01:09:38;1.70;;;1.60;;
13279;SDS011;6708;49.814;8.652;2022-11-18T01:12:08;1.60;;;1.60;;
13279;SDS011;6708;49.814;8.652;2022-11-18T01:14:53;1.77;;;1.67;;
13279;SDS011;6708;49.814;8.652;2022-11-18T01:17:21;2.40;;;1.50;;
13279;SDS011;6708;49.814;8.652;2022-11-18T01:19:49;1.50;;;1.50;;
13279;SDS011;6708;49.814;8.652;2022-11-18T01:22:21;1.70;;;1.60;;
13279;SDS011;6708;49.814;8.652;2022-11-18T01:24:49;2.50;;;1.57;;
13279;SDS011;6708;49.814;8.652;2022-11-18T01:27:18;1.73;;;1.73;;
13279;SDS011;6708;49.814;8.652;2022-11-18T01:29:46;4.93;;;1.87;;
13279;SDS011;6708;49.814;8.652;2022-11-18T01:32:15;2.17;;;2.03;;
13279;SDS011;6708;49.814;8.652;2022-11-18T01:34:44;2.57;;;2.20;;
13279;SDS011;6708;49.814;8.652;2022-11-18T01:37:14;2.30;;;2.10;;
13279;SDS011;6708;49.814;8.652;2022-11-18T01:39:46;2.93;;;2.63;;
13279;SDS011;6708;49.814;8.652;2022-11-18T01:42:15;2.23;;;2.13;;
13279;SDS011;6708;49.814;8.652;2022-11-18T01:44:58;1.90;;;1.80;;
13279;SDS011;6708;49.814;8.652;2022-11-18T01:47:31;2.20;;;2.10;;
13279;SDS011;6708;49.814;8.652;2022-11-18T01:50:03;1.70;;;1.70;;
13279;SDS011;6708;49.814;8.652;2022-11-18T01:52:33;2.10;;;2.00;;
13279;SDS011;6708;49.814;8.652;2022-11-18T01:55:06;1.73;;;1.63;;
13279;SDS011;6708;49.814;8.652;2022-11-18T01:57:38;2.00;;;1.97;;
13279;SDS011;6708;49.814;8.652;2022-11-18T02:00:08;2.13;;;2.03;;
13279;SDS011;6708;49.814;8.652;2022-11-18T02:02:41;2.37;;;2.27;;
13279;SDS011;6708;49.814;8.652;2022-11-18T02:05:09;1.77;;;1.73;;
13279;SDS011;6708;49.814;8.652;2022-11-18T02:07:41;1.93;;;1.83;;
13279;SDS011;6708;49.814;8.652;2022-11-18T02:10:19;1.80;;;1.70;;
13279;SDS011;6708;49.814;8.652;2022-11-18T02:12:49;2.43;;;2.33;;
13279;SDS011;6708;49.814;8.652;2022-11-18T02:15:19;2.70;;;2.60;;
13279;SDS011;6708;49.814;8.652;2022-11-18T02:17:54;2.97;;;2.87;;
13279;SDS011;6708;49.814;8.652;2022-11-18T02:20:27;3.33;;;3.03;;
13279;SDS011;6708;49.814;8.652;2022-11-18T02:29:13;4.43;;;4.03;;
13279;SDS011;6708;49.814;8.652;2022-11-18T02:31:44;4.77;;;4.37;;
13279;SDS011;6708;49.814;8.652;2022-11-18T02:34:22;5.60;;;4.97;;
13279;SDS011;6708;49.814;8.652;2022-11-18T02:36:59;5.07;;;4.60;;
13279;SDS011;6708;49.814;8.652;2022-11-18T02:39:32;5.30;;;4.80;;
13279;SDS011;6708;49.814;8.652;2022-11-18T02:42:05;4.30;;;4.10;;
13279;SDS011;6708;49.814;8.652;2022-11-18T02:44:41;4.90;;;4.60;;
13279;SDS011;6708;49.814;8.652;2022-11-18T02:47:15;10.27;;;5.27;;
13279;SDS011;6708;49.814;8.652;2022-11-18T02:49:46;5.13;;;4.73;;
13279;SDS011;6708;49.814;8.652;2022-11-18T02:52:16;3.83;;;3.63;;
13279;SDS011;6708;49.814;8.652;2022-11-18T02:54:48;4.37;;;3.97;;
13279;SDS011;6708;49.814;8.652;2022-11-18T02:57:17;4.13;;;3.77;;
13279;SDS011;6708;49.814;8.652;2022-11-18T02:59:49;3.53;;;3.33;;
13279;SDS011;6708;49.814;8.652;2022-11-18T03:02:18;3.33;;;3.07;;
13279;SDS011;6708;49.814;8.652;2022-11-18T03:04:47;2.70;;;2.57;;
13279;SDS011;6708;49.814;8.652;2022-11-18T03:07:18;2.53;;;2.43;;
13279;SDS011;6708;49.814;8.652;2022-11-18T03:09:51;3.10;;;2.90;;
13279;SDS011;6708;49.814;8.652;2022-11-18T03:12:25;2.80;;;2.70;;
13279;SDS011;6708;49.814;8.652;2022-11-18T03:15:05;2.80;;;2.70;;
13279;SDS011;6708;49.814;8.652;2022-11-18T03:17:43;3.40;;;3.10;;
13279;SDS011;6708;49.814;8.652;2022-11-18T03:20:17;3.93;;;3.50;;
13279;SDS011;6708;49.814;8.652;2022-11-18T03:22:49;2.93;;;2.83;;
13279;SDS011;6708;49.814;8.652;2022-11-18T03:25:21;7.20;;;4.17;;
13279;SDS011;6708;49.814;8.652;2022-11-18T03:27:55;5.43;;;3.60;;
13279;SDS011;6708;49.814;8.652;2022-11-18T03:30:31;3.97;;;3.67;;
13279;SDS011;6708;49.814;8.652;2022-11-18T03:33:01;3.53;;;3.33;;
13279;SDS011;6708;49.814;8.652;2022-11-18T03:35:32;4.73;;;4.43;;
13279;SDS011;6708;49.814;8.652;2022-11-18T03:38:04;4.73;;;4.47;;
13279;SDS011;6708;49.814;8.652;2022-11-18T03:40:36;3.80;;;3.60;;
13279;SDS011;6708;49.814;8.652;2022-11-18T03:43:08;5.10;;;4.70;;
13279;SDS011;6708;49.814;8.652;2022-11-18T03:45:42;6.53;;;6.03;;
13279;SDS011;6708;49.814;8.652;2022-11-18T03:48:13;6.60;;;6.07;;
13279;SDS011;6708;49.814;8.652;2022-11-18T03:50:44;6.50;;;6.00;;
13279;SDS011;6708;49.814;8.652;2022-11-18T03:53:17;5.40;;;5.00;;
13279;SDS011;6708;49.814;8.652;2022-11-18T03:55:46;6.23;;;5.73;;
13279;SDS011;6708;49.814;8.652;2022-11-18T03:58:20;6.50;;;5.90;;
13279;SDS011;6708;49.814;8.652;2022-11-18T04:00:55;6.17;;;5.70;;
13279;SDS011;6708;49.814;8.652;2022-11-18T04:03:26;5.47;;;5.07;;
13279;SDS011;6708;49.814;8.652;2022-11-18T04:05:56;5.77;;;5.27;;
13279;SDS011;6708;49.814;8.652;2022-11-18T04:08:28;4.90;;;4.60;;
13279;SDS011;6708;49.814;8.652;2022-11-18T04:11:02;3.63;;;3.43;;
13279;SDS011;6708;49.814;8.652;2022-11-18T04:13:33;5.53;;;4.40;;
13279;SDS011;6708;49.814;8.652;2022-11-18T04:16:08;4.30;;;4.10;;
13279;SDS011;6708;49.814;8.652;2022-11-18T04:18:38;5.37;;;4.17;;
13279;SDS011;6708;49.814;8.652;2022-11-18T04:21:06;4.43;;;3.73;;
13279;SDS011;6708;49.814;8.652;2022-11-18T04:23:38;4.30;;;4.10;;
13279;SDS011;6708;49.814;8.652;2022-11-18T04:26:07;5.37;;;4.97;;
13279;SDS011;6708;49.814;8.652;2022-11-18T04:28:36;5.20;;;4.83;;
13279;SDS011;6708;49.814;8.652;2022-11-18T04:31:08;5.60;;;5.30;;
13279;SDS011;6708;49.814;8.652;2022-11-18T04:33:38;6.00;;;5.43;;
13279;SDS011;6708;49.814;8.652;2022-11-18T04:36:08;8.73;;;7.63;;
13279;SDS011;6708;49.814;8.652;2022-11-18T04:38:40;8.20;;;7.40;;
13279;SDS011;6708;49.814;8.652;2022-11-18T04:41:09;8.20;;;7.50;;
13279;SDS011;6708;49.814;8.652;2022-11-18T04:43:39;7.90;;;7.17;;
13279;SDS011;6708;49.814;8.652;2022-11-18T04:46:13;11.47;;;8.43;;
13279;SDS011;6708;49.814;8.652;2022-11-18T04:48:42;8.23;;;7.43;;
13279;SDS011;6708;49.814;8.652;2022-11-18T04:51:10;7.80;;;7.20;;
13279;SDS011;6708;49.814;8.652;2022-11-18T04:53:39;8.13;;;7.30;;
13279;SDS011;6708;49.814;8.652;2022-11-18T04:56:08;7.70;;;7.00;;
13279;SDS011;6708;49.814;8.652;2022-11-18T04:58:37;7.40;;;6.70;;
13279;SDS011;6708;49.814;8.652;2022-11-18T05:01:06;6.67;;;6.17;;
13279;SDS011;6708;49.814;8.652;2022-11-18T05:03:37;6.90;;;6.40;;
13279;SDS011;6708;49.814;8.652;2022-11-18T05:06:05;7.13;;;5.40;;
13279;SDS011;6708;49.814;8.652;2022-11-18T05:08:34;6.83;;;6.10;;
13279;SDS011;6708;49.814;8.652;2022-11-18T05:11:04;5.63;;;5.23;;
13279;SDS011;6708;49.814;8.652;2022-11-18T05:13:46;5.20;;;4.80;;
13279;SDS011;6708;49.814;8.652;2022-11-18T05:16:19;6.53;;;5.97;;
13279;SDS011;6708;49.814;8.652;2022-11-18T05:18:50;6.70;;;5.77;;
13279;SDS011;6708;49.814;8.652;2022-11-18T05:21:19;6.83;;;6.20;;
13279;SDS011;6708;49.814;8.652;2022-11-18T05:23:48;6.57;;;5.97;;
13279;SDS011;6708;49.814;8.652;2022-11-18T05:26:18;6.27;;;5.77;;
13279;SDS011;6708;49.814;8.652;2022-11-18T05:28:48;8.10;;;7.50;;
13279;SDS011;6708;49.814;8.652;2022-11-18T05:31:17;8.83;;;8.03;;
13279;SDS011;6708;49.814;8.652;2022-11-18T05:33:47;8.67;;;7.97;;
13279;SDS011;6708;49.814;8.652;2022-11-18T05:36:20;9.00;;;8.30;;
13279;SDS011;6708;49.814;8.652;2022-11-18T05:38:49;9.13;;;8.33;;
13279;SDS011;6708;49.814;8.652;2022-11-18T05:41:17;9.70;;;8.90;;
13279;SDS011;6708;49.814;8.652;2022-11-18T05:43:59;10.00;;;9.00;;
13279;SDS011;6708;49.814;8.652;2022-11-18T05:46:28;12.40;;;10.07;;
13279;SDS011;6708;49.814;8.652;2022-11-18T05:48:57;9.93;;;9.10;;
13279;SDS011;6708;49.814;8.652;2022-11-18T05:51:31;9.77;;;8.87;;
13279;SDS011;6708;49.814;8.652;2022-11-18T05:54:01;10.67;;;9.67;;
13279;SDS011;6708;49.814;8.652;2022-11-18T05:56:32;9.50;;;8.70;;
13279;SDS011;6708;49.814;8.652;2022-11-18T05:59:05;8.83;;;8.07;;
13279;SDS011;6708;49.814;8.652;2022-11-18T06:01:35;8.33;;;7.63;;
13279;SDS011;6708;49.814;8.652;2022-11-18T06:04:09;8.70;;;8.00;;
13279;SDS011;6708;49.814;8.652;2022-11-18T06:06:43;9.80;;;8.80;;
13279;SDS011;6708;49.814;8.652;2022-11-18T06:09:13;10.40;;;9.50;;
13279;SDS011;6708;49.814;8.652;2022-11-18T06:11:46;9.27;;;8.57;;
13279;SDS011;6708;49.814;8.652;2022-11-18T06:14:17;9.67;;;8.67;;
13279;SDS011;6708;49.814;8.652;2022-11-18T06:16:49;9.20;;;8.27;;
13279;SDS011;6708;49.814;8.652;2022-11-18T06:19:19;12.20;;;9.93;;
13279;SDS011;6708;49.814;8.652;2022-11-18T06:21:50;10.30;;;9.40;;
13279;SDS011;6708;49.814;8.652;2022-11-18T06:24:19;10.97;;;9.97;;
13279;SDS011;6708;49.814;8.652;2022-11-18T06:26:47;12.77;;;10.97;;
13279;SDS011;6708;49.814;8.652;2022-11-18T06:29:16;11.60;;;10.47;;
13279;SDS011;6708;49.814;8.652;2022-11-18T06:31:45;10.60;;;9.70;;
13279;SDS011;6708;49.814;8.652;2022-11-18T06:34:14;10.53;;;9.63;;
13279;SDS011;6708;49.814;8.652;2022-11-18T06:36:42;8.70;;;7.90;;
13279;SDS011;6708;49.814;8.652;2022-11-18T06:39:15;7.10;;;6.50;;
13279;SDS011;6708;49.814;8.652;2022-11-18T06:41:43;5.10;;;4.80;;
13279;SDS011;6708;49.814;8.652;2022-11-18T06:44:11;4.23;;;3.93;;
13279;SDS011;6708;49.814;8.652;2022-11-18T06:46:38;5.07;;;4.73;;
13279;SDS011;6708;49.814;8.652;2022-11-18T06:49:18;4.47;;;4.17;;
13279;SDS011;6708;49.814;8.652;2022-11-18T06:51:47;5.20;;;4.90;;
13279;SDS011;6708;49.814;8.652;2022-11-18T06:54:18;5.60;;;5.10;;
13279;SDS011;6708;49.814;8.652;2022-11-18T06:56:47;4.60;;;4.30;;
13279;SDS011;6708;49.814;8.652;2022-11-18T06:59:16;4.90;;;4.50;;
13279;SDS011;6708;49.814;8.652;2022-11-18T07:01:47;4.63;;;4.27;;
13279;SDS011;6708;49.814;8.652;2022-11-18T07:04:18;4.27;;;4.07;;
13279;SDS011;6708;49.814;8.652;2022-11-18T07:06:47;4.13;;;3.83;;
13279;SDS011;6708;49.814;8.652;2022-11-18T07:09:19;3.60;;;3.40;;
13279;SDS011;6708;49.814;8.652;2022-11-18T07:11:48;2.77;;;2.67;;
13279;SDS011;6708;49.814;8.652;2022-11-18T07:14:16;3.53;;;3.33;;
13279;SDS011;6708;49.814;8.652;2022-11-18T07:16:45;3.03;;;2.83;;
13279;SDS011;6708;49.814;8.652;2022-11-18T07:19:16;3.10;;;2.90;;
13279;SDS011;6708;49.814;8.652;2022-11-18T07:21:44;3.07;;;2.87;;
13279;SDS011;6708;49.814;8.652;2022-11-18T07:24:13;2.97;;;2.80;;
13279;SDS011;6708;49.814;8.652;2022-11-18T07:26:45;3.40;;;2.77;;
13279;SDS011;6708;49.814;8.652;2022-11-18T07:29:14;2.30;;;2.20;;
13279;SDS011;6708;49.814;8.652;2022-11-18T07:31:43;3.80;;;2.20;;
13279;SDS011;6708;49.814;8.652;2022-11-18T07:34:13;2.83;;;2.20;;
13279;SDS011;6708;49.814;8.652;2022-11-18T07:36:42;2.10;;;2.00;;
13279;SDS011;6708;49.814;8.652;2022-11-18T07:39:11;1.77;;;1.67;;
13279;SDS011;6708;49.814;8.652;2022-11-18T07:41:39;2.10;;;2.00;;
13279;SDS011;6708;49.814;8.652;2022-11-18T07:44:12;2.47;;;2.37;;
13279;SDS011;6708;49.814;8.652;2022-11-18T07:46:43;1.97;;;1.87;;
13279;SDS011;6708;49.814;8.652;2022-11-18T07:49:11;2.20;;;1.97;;
13279;SDS011;6708;49.814;8.652;2022-11-18T07:51:40;1.60;;;1.60;;
13279;SDS011;6708;49.814;8.652;2022-11-18T07:54:10;2.50;;;1.70;;
13279;SDS011;6708;49.814;8.652;2022-11-18T07:56:41;1.33;;;1.33;;
13279;SDS011;6708;49.814;8.652;2022-11-18T07:59:14;1.70;;;1.60;;
13279;SDS011;6708;49.814;8.652;2022-11-18T08:01:43;1.30;;;1.20;;
13279;SDS011;6708;49.814;8.652;2022-11-18T08:04:11;1.03;;;1.03;;
13279;SDS011;6708;49.814;8.652;2022-11-18T08:06:40;1.30;;;1.27;;
13279;SDS011;6708;49.814;8.652;2022-11-18T08:09:09;1.97;;;1.10;;
13279;SDS011;6708;49.814;8.652;2022-11-18T08:11:40;0.80;;;0.80;;
13279;SDS011;6708;49.814;8.652;2022-11-18T08:14:08;0.83;;;0.80;;
13279;SDS011;6708;49.814;8.652;2022-11-18T08:16:39;0.83;;;0.83;;
13279;SDS011;6708;49.814;8.652;2022-11-18T08:19:09;1.77;;;1.10;;
13279;SDS011;6708;49.814;8.652;2022-11-18T08:21:38;1.27;;;0.90;;
13279;SDS011;6708;49.814;8.652;2022-11-18T08:24:11;2.93;;;0.97;;
13279;SDS011;6708;49.814;8.652;2022-11-18T08:26:40;0.80;;;0.80;;
13279;SDS011;6708;49.814;8.652;2022-11-18T08:29:09;0.60;;;0.60;;
13279;SDS011;6708;49.814;8.652;2022-11-18T08:31:41;0.67;;;0.67;;
13279;SDS011;6708;49.814;8.652;2022-11-18T08:34:10;0.67;;;0.53;;
13279;SDS011;6708;49.814;8.652;2022-11-18T08:36:39;0.63;;;0.63;;
13279;SDS011;6708;49.814;8.652;2022-11-18T08:39:12;0.57;;;0.57;;
13279;SDS011;6708;49.814;8.652;2022-11-18T08:41:41;1.13;;;0.80;;
13279;SDS011;6708;49.814;8.652;2022-11-18T08:44:12;0.70;;;0.70;;
13279;SDS011;6708;49.814;8.652;2022-11-18T08:46:44;0.60;;;0.60;;
13279;SDS011;6708;49.814;8.652;2022-11-18T08:49:13;0.60;;;0.60;;
13279;SDS011;6708;49.814;8.652;2022-11-18T08:51:42;0.50;;;0.50;;
13279;SDS011;6708;49.814;8.652;2022-11-18T08:54:10;0.43;;;0.43;;
13279;SDS011;6708;49.814;8.652;2022-11-18T08:56:40;0.67;;;0.67;;
13279;SDS011;6708;49.814;8.652;2022-11-18T08:59:09;0.60;;;0.50;;
13279;SDS011;6708;49.814;8.652;2022-11-18T09:01:40;0.73;;;0.63;;
13279;SDS011;6708;49.814;8.652;2022-11-18T09:04:11;3.00;;;0.50;;
13279;SDS011;6708;49.814;8.652;2022-11-18T09:06:44;0.43;;;0.40;;
13279;SDS011;6708;49.814;8.652;2022-11-18T09:09:12;0.53;;;0.50;;
13279;SDS011;6708;49.814;8.652;2022-11-18T09:11:41;0.47;;;0.47;;
13279;SDS011;6708;49.814;8.652;2022-11-18T09:14:11;0.80;;;0.80;;
13279;SDS011;6708;49.814;8.652;2022-11-18T09:16:40;0.50;;;0.50;;
13279;SDS011;6708;49.814;8.652;2022-11-18T09:19:13;0.47;;;0.30;;
13279;SDS011;6708;49.814;8.652;2022-11-18T09:21:41;1.50;;;0.90;;
13279;SDS011;6708;49.814;8.652;2022-11-18T09:24:09;0.83;;;0.50;;
13279;SDS011;6708;49.814;8.652;2022-11-18T09:26:40;0.87;;;0.80;;
13279;SDS011;6708;49.814;8.652;2022-11-18T09:29:08;0.67;;;0.67;;
13279;SDS011;6708;49.814;8.652;2022-11-18T09:31:37;0.60;;;0.60;;
13279;SDS011;6708;49.814;8.652;2022-11-18T09:34:06;0.90;;;0.90;;
13279;SDS011;6708;49.814;8.652;2022-11-18T09:36:38;1.10;;;1.03;;
13279;SDS011;6708;49.814;8.652;2022-11-18T09:39:09;1.00;;;1.00;;
13279;SDS011;6708;49.814;8.652;2022-11-18T09:41:47;1.10;;;1.10;;
13279;SDS011;6708;49.814;8.652;2022-11-18T09:44:19;1.13;;;1.10;;
13279;SDS011;6708;49.814;8.652;2022-11-18T09:46:58;1.30;;;1.20;;
13279;SDS011;6708;49.814;8.652;2022-11-18T09:49:36;0.90;;;0.90;;
13279;SDS011;6708;49.814;8.652;2022-11-18T09:52:13;2.57;;;1.43;;
13279;SDS011;6708;49.814;8.652;2022-11-18T09:54:44;1.93;;;1.10;;
13279;SDS011;6708;49.814;8.652;2022-11-18T09:57:14;1.37;;;1.37;;
13279;SDS011;6708;49.814;8.652;2022-11-18T09:59:44;1.40;;;1.33;;
13279;SDS011;6708;49.814;8.652;2022-11-18T10:02:21;1.50;;;1.47;;
13279;SDS011;6708;49.814;8.652;2022-11-18T10:04:58;1.53;;;1.50;;
13279;SDS011;6708;49.814;8.652;2022-11-18T10:07:34;1.50;;;1.50;;
13279;SDS011;6708;49.814;8.652;2022-11-18T10:10:15;1.70;;;1.60;;
13279;SDS011;6708;49.814;8.652;2022-11-18T10:12:48;2.10;;;2.00;;
13279;SDS011;6708;49.814;8.652;2022-11-18T10:15:21;2.07;;;1.97;;
13279;SDS011;6708;49.814;8.652;2022-11-18T10:17:57;2.40;;;2.27;;
13279;SDS011;6708;49.814;8.652;2022-11-18T10:20:31;2.60;;;2.50;;
13279;SDS011;6708;49.814;8.652;2022-11-18T10:23:10;2.50;;;2.40;;
13279;SDS011;6708;49.814;8.652;2022-11-18T10:25:42;2.63;;;2.53;;
13279;SDS011;6708;49.814;8.652;2022-11-18T10:28:13;2.20;;;2.10;;
13279;SDS011;6708;49.814;8.652;2022-11-18T10:30:46;2.83;;;2.73;;
13279;SDS011;6708;49.814;8.652;2022-11-18T10:33:16;2.60;;;2.50;;
13279;SDS011;6708;49.814;8.652;2022-11-18T10:36:07;2.73;;;2.63;;
13279;SDS011;6708;49.814;8.652;2022-11-18T10:39:09;2.90;;;2.80;;
13279;SDS011;6708;49.814;8.652;2022-11-18T10:41:42;2.23;;;2.13;;
13279;SDS011;6708;49.814;8.652;2022-11-18T10:44:32;2.37;;;2.27;;
13279;SDS011;6708;49.814;8.652;2022-11-18T10:47:14;2.83;;;2.73;;
13279;SDS011;6708;49.814;8.652;2022-11-18T10:49:49;2.60;;;2.50;;
13279;SDS011;6708;49.814;8.652;2022-11-18T10:52:19;2.50;;;2.40;;
13279;SDS011;6708;49.814;8.652;2022-11-18T10:57:52;2.83;;;2.73;;
13279;SDS011;6708;49.814;8.652;2022-11-18T11:03:21;3.90;;;3.60;;
13279;SDS011;6708;49.814;8.652;2022-11-18T11:08:59;3.33;;;3.23;;
13279;SDS011;6708;49.814;8.652;2022-11-18T11:11:32;3.67;;;3.47;;
13279;SDS011;6708;49.814;8.652;2022-11-18T11:14:17;4.00;;;3.70;;
13279;SDS011;6708;49.814;8.652;2022-11-18T11:16:55;3.77;;;3.57;;
13279;SDS011;6708;49.814;8.652;2022-11-18T11:19:28;3.83;;;3.63;;
13279;SDS011;6708;49.814;8.652;2022-11-18T11:22:03;3.20;;;3.10;;
13279;SDS011;6708;49.814;8.652;2022-11-18T11:24:35;3.60;;;3.40;;
13279;SDS011;6708;49.814;8.652;2022-11-18T11:27:06;3.20;;;3.10;;
13279;SDS011;6708;49.814;8.652;2022-11-18T11:32:45;7.50;;;5.10;;
13279;SDS011;6708;49.814;8.652;2022-11-18T11:35:40;5.77;;;4.50;;
13279;SDS011;6708;49.814;8.652;2022-11-18T11:38:15;5.07;;;4.77;;
13279;SDS011;6708;49.814;8.652;2022-11-18T11:40:50;4.77;;;4.37;;
13279;SDS011;6708;49.814;8.652;2022-11-18T11:43:30;3.23;;;3.13;;
13279;SDS011;6708;49.814;8.652;2022-11-18T11:46:08;3.17;;;2.97;;
13279;SDS011;6708;49.814;8.652;2022-11-18T11:48:50;3.23;;;3.03;;
13279;SDS011;6708;49.814;8.652;2022-11-18T11:51:29;2.97;;;2.77;;
13279;SDS011;6708;49.814;8.652;2022-11-18T11:54:04;3.30;;;3.10;;
13279;SDS011;6708;49.814;8.652;2022-11-18T11:56:43;3.30;;;3.17;;
13279;SDS011;6708;49.814;8.652;2022-11-18T11:59:19;3.60;;;3.50;;
13279;SDS011;6708;49.814;8.652;2022-11-18T12:02:06;3.23;;;3.03;;
13279;SDS011;6708;49.814;8.652;2022-11-18T12:04:55;3.47;;;3.27;;
13279;SDS011;6708;49.814;8.652;2022-11-18T12:07:28;3.37;;;3.20;;
13279;SDS011;6708;49.814;8.652;2022-11-18T12:12:57;3.27;;;3.07;;
13279;SDS011;6708;49.814;8.652;2022-11-18T12:15:41;3.23;;;3.00;;
13279;SDS011;6708;49.814;8.652;2022-11-18T12:18:18;3.27;;;3.00;;
13279;SDS011;6708;49.814;8.652;2022-11-18T12:20:52;3.00;;;2.90;;
13279;SDS011;6708;49.814;8.652;2022-11-18T12:23:22;2.23;;;2.03;;
13279;SDS011;6708;49.814;8.652;2022-11-18T12:25:53;2.30;;;2.20;;
13279;SDS011;6708;49.814;8.652;2022-11-18T12:28:26;2.53;;;2.43;;
13279;SDS011;6708;49.814;8.652;2022-11-18T12:34:27;2.20;;;2.10;;
13279;SDS011;6708;49.814;8.652;2022-11-18T12:40:01;2.13;;;2.03;;
13279;SDS011;6708;49.814;8.652;2022-11-18T12:42:34;2.30;;;2.10;;
13279;SDS011;6708;49.814;8.652;2022-11-18T12:48:38;2.20;;;2.10;;
13279;SDS011;6708;49.814;8.652;2022-11-18T12:54:19;1.70;;;1.70;;
13279;SDS011;6708;49.814;8.652;2022-11-18T12:56:56;2.20;;;2.10;;
13279;SDS011;6708;49.814;8.652;2022-11-18T12:59:27;2.13;;;2.03;;
13279;SDS011;6708;49.814;8.652;2022-11-18T13:05:00;2.17;;;2.07;;
13279;SDS011;6708;49.814;8.652;2022-11-18T13:07:30;2.07;;;1.97;;
13279;SDS011;6708;49.814;8.652;2022-11-18T13:10:18;2.27;;;1.90;;
13279;SDS011;6708;49.814;8.652;2022-11-18T13:12:56;2.00;;;1.90;;
13279;SDS011;6708;49.814;8.652;2022-11-18T13:15:25;1.90;;;1.80;;
13279;SDS011;6708;49.814;8.652;2022-11-18T13:18:10;2.13;;;2.03;;
13279;SDS011;6708;49.814;8.652;2022-11-18T13:20:53;1.90;;;1.80;;
13279;SDS011;6708;49.814;8.652;2022-11-18T13:23:24;2.10;;;2.00;;
13279;SDS011;6708;49.814;8.652;2022-11-18T13:26:11;2.00;;;1.90;;
13279;SDS011;6708;49.814;8.652;2022-11-18T13:28:49;2.00;;;1.90;;
13279;SDS011;6708;49.814;8.652;2022-11-18T13:31:37;1.83;;;1.80;;
13279;SDS011;6708;49.814;8.652;2022-11-18T13:34:11;3.50;;;2.07;;
13279;SDS011;6708;49.814;8.652;2022-11-18T13:36:47;1.80;;;1.70;;
13279;SDS011;6708;49.814;8.652;2022-11-18T13:39:17;1.80;;;1.80;;
13279;SDS011;6708;49.814;8.652;2022-11-18T13:41:57;1.80;;;1.70;;
13279;SDS011;6708;49.814;8.652;2022-11-18T13:44:29;2.37;;;1.67;;
13279;SDS011;6708;49.814;8.652;2022-11-18T13:47:02;1.07;;;1.07;;
13279;SDS011;6708;49.814;8.652;2022-11-18T13:49:44;1.27;;;1.10;;
13279;SDS011;6708;49.814;8.652;2022-11-18T13:52:17;2.23;;;1.43;;
13279;SDS011;6708;49.814;8.652;2022-11-18T13:54:48;1.37;;;1.30;;
13279;SDS011;6708;49.814;8.652;2022-11-18T13:57:18;1.10;;;1.10;;
13279;SDS011;6708;49.814;8.652;2022-11-18T13:59:51;1.07;;;1.07;;
13279;SDS011;6708;49.814;8.652;2022-11-18T14:02:23;3.43;;;0.97;;
13279;SDS011;6708;49.814;8.652;2022-11-18T14:04:53;1.17;;;1.17;;
13279;SDS011;6708;49.814;8.652;2022-11-18T14:07:24;1.03;;;0.90;;
13279;SDS011;6708;49.814;8.652;2022-11-18T14:09:55;4.03;;;1.00;;
13279;SDS011;6708;49.814;8.652;2022-11-18T14:12:26;0.73;;;0.73;;
13279;SDS011;6708;49.814;8.652;2022-11-18T14:17:50;0.63;;;0.60;;
13279;SDS011;6708;49.814;8.652;2022-11-18T14:20:20;0.63;;;0.63;;
13279;SDS011;6708;49.814;8.652;2022-11-18T14:22:51;0.63;;;0.60;;
13279;SDS011;6708;49.814;8.652;2022-11-18T14:25:21;1.40;;;1.23;;
13279;SDS011;6708;49.814;8.652;2022-11-18T14:27:55;1.07;;;0.87;;
13279;SDS011;6708;49.814;8.652;2022-11-18T14:30:32;0.70;;;0.70;;
13279;SDS011;6708;49.814;8.652;2022-11-18T14:33:11;1.57;;;0.70;;
13279;SDS011;6708;49.814;8.652;2022-11-18T14:35:49;0.80;;;0.80;;
13279;SDS011;6708;49.814;8.652;2022-11-18T14:38:20;0.50;;;0.50;;
13279;SDS011;6708;49.814;8.652;2022-11-18T14:40:52;0.93;;;0.60;;
13279;SDS011;6708;49.814;8.652;2022-11-18T14:43:23;0.83;;;0.83;;
13279;SDS011;6708;49.814;8.652;2022-11-18T14:45:56;0.60;;;0.60;;
13279;SDS011;6708;49.814;8.652;2022-11-18T14:48:26;0.40;;;0.40;;
13279;SDS011;6708;49.814;8.652;2022-11-18T14:50:56;0.63;;;0.53;;
13279;SDS011;6708;49.814;8.652;2022-11-18T14:53:25;0.60;;;0.60;;
13279;SDS011;6708;49.814;8.652;2022-11-18T14:55:53;0.50;;;0.50;;
13279;SDS011;6708;49.814;8.652;2022-11-18T14:58:25;1.03;;;0.53;;
13279;SDS011;6708;49.814;8.652;2022-11-18T15:00:57;0.60;;;0.60;;
13279;SDS011;6708;49.814;8.652;2022-11-18T15:03:28;1.70;;;0.50;;
13279;SDS011;6708;49.814;8.652;2022-11-18T15:05:58;1.27;;;0.47;;
13279;SDS011;6708;49.814;8.652;2022-11-18T15:08:26;1.43;;;0.87;;
13279;SDS011;6708;49.814;8.652;2022-11-18T15:10:55;0.50;;;0.50;;
13279;SDS011;6708;49.814;8.652;2022-11-18T15:13:24;0.70;;;0.60;;
13279;SDS011;6708;49.814;8.652;2022-11-18T15:15:52;0.67;;;0.60;;
13279;SDS011;6708;49.814;8.652;2022-11-18T15:18:24;1.73;;;0.80;;
13279;SDS011;6708;49.814;8.652;2022-11-18T15:20:54;0.67;;;0.67;;
13279;SDS011;6708;49.814;8.652;2022-11-18T15:23:25;0.90;;;0.90;;
13279;SDS011;6708;49.814;8.652;2022-11-18T15:25:55;0.63;;;0.63;;
13279;SDS011;6708;49.814;8.652;2022-11-18T15:28:24;1.00;;;1.00;;
13279;SDS011;6708;49.814;8.652;2022-11-18T15:30:54;0.80;;;0.80;;
13279;SDS011;6708;49.814;8.652;2022-11-18T15:33:25;1.90;;;0.73;;
13279;SDS011;6708;49.814;8.652;2022-11-18T15:35:54;2.13;;;1.40;;
13279;SDS011;6708;49.814;8.652;2022-11-18T15:38:22;1.77;;;0.97;;
13279;SDS011;6708;49.814;8.652;2022-11-18T15:40:51;1.87;;;1.07;;
13279;SDS011;6708;49.814;8.652;2022-11-18T15:43:23;1.60;;;1.30;;
13279;SDS011;6708;49.814;8.652;2022-11-18T15:45:55;1.10;;;0.90;;
13279;SDS011;6708;49.814;8.652;2022-11-18T15:48:27;1.20;;;1.10;;
13279;SDS011;6708;49.814;8.652;2022-11-18T15:50:56;0.77;;;0.77;;
13279;SDS011;6708;49.814;8.652;2022-11-18T15:53:24;0.97;;;0.97;;
13279;SDS011;6708;49.814;8.652;2022-11-18T15:58:43;2.17;;;1.10;;
13279;SDS011;6708;49.814;8.652;2022-11-18T16:01:12;0.77;;;0.77;;
13279;SDS011;6708;49.814;8.652;2022-11-18T16:03:43;1.33;;;1.00;;
13279;SDS011;6708;49.814;8.652;2022-11-18T16:06:12;0.90;;;0.87;;
13279;SDS011;6708;49.814;8.652;2022-11-18T16:08:40;0.70;;;0.70;;
13279;SDS011;6708;49.814;8.652;2022-11-18T16:11:09;0.83;;;0.83;;
13279;SDS011;6708;49.814;8.652;2022-11-18T16:13:51;1.17;;;1.07;;